createdAt,value
2018-12-05T00:01:38.720Z,0.70
2018-12-05T00:04:06.630Z,0.70
2018-12-05T00:06:34.317Z,0.70
2018-12-05T00:09:02.211Z,0.70
2018-12-05T00:11:29.952Z,0.70
2018-12-05T00:13:57.651Z,0.70
2018-12-05T00:16:26.264Z,0.80
2018-12-05T00:18:53.963Z,0.80
2018-12-05T00:21:21.799Z,0.90
2018-12-05T00:23:50.412Z,0.90
2018-12-05T00:26:18.221Z,0.90
2018-12-05T00:28:45.970Z,0.90
2018-12-05T00:31:14.008Z,0.90
2018-12-05T00:33:41.788Z,0.90
2018-12-05T00:36:09.476Z,0.90
2018-12-05T00:38:37.276Z,0.90
2018-12-05T00:41:04.935Z,1.00
2018-12-05T00:43:32.764Z,0.90
2018-12-05T00:46:00.774Z,1.00
2018-12-05T00:48:29.404Z,1.00
2018-12-05T00:50:57.188Z,1.00
2018-12-05T00:53:24.901Z,1.10
2018-12-05T00:55:52.553Z,1.10
2018-12-05T00:58:20.275Z,1.10
2018-12-05T01:00:48.901Z,1.10
2018-12-05T01:03:16.565Z,1.10
2018-12-05T01:05:44.378Z,1.10
2018-12-05T01:08:12.085Z,1.10
2018-12-05T01:10:40.313Z,1.10
2018-12-05T01:13:08.032Z,1.00
2018-12-05T01:15:35.890Z,1.10
2018-12-05T01:18:03.645Z,1.00
2018-12-05T01:20:31.390Z,1.00
2018-12-05T01:22:59.113Z,1.00
2018-12-05T01:25:26.892Z,1.10
2018-12-05T01:27:54.671Z,1.10
2018-12-05T01:30:22.856Z,1.10
2018-12-05T01:32:50.526Z,1.20
2018-12-05T01:35:18.605Z,1.10
2018-12-05T01:37:46.651Z,1.00
2018-12-05T01:40:14.440Z,1.00
2018-12-05T01:42:42.181Z,0.90
2018-12-05T01:45:09.876Z,0.90
2018-12-05T01:47:37.600Z,0.90
2018-12-05T01:50:05.801Z,0.90
2018-12-05T01:52:33.837Z,0.80
2018-12-05T01:55:02.388Z,0.80
2018-12-05T01:57:30.308Z,0.90
2018-12-05T01:59:58.223Z,0.90
2018-12-05T02:02:25.998Z,0.80
2018-12-05T02:04:54.042Z,0.80
2018-12-05T02:07:21.845Z,0.80
2018-12-05T02:09:49.619Z,0.80
2018-12-05T02:12:17.518Z,0.80
2018-12-05T02:14:45.242Z,0.80
2018-12-05T02:17:13.123Z,0.70
2018-12-05T02:19:40.981Z,0.80
2018-12-05T02:22:09.357Z,0.70
2018-12-05T02:24:37.199Z,0.80
2018-12-05T02:27:04.908Z,0.70
2018-12-05T02:29:34.695Z,0.70
2018-12-05T02:32:02.627Z,0.80
2018-12-05T02:34:30.600Z,0.80
2018-12-05T02:36:58.327Z,0.80
2018-12-05T02:39:26.810Z,0.70
2018-12-05T02:41:54.562Z,0.60
2018-12-05T02:44:22.234Z,0.70
2018-12-05T02:46:50.326Z,0.70
2018-12-05T02:49:18.404Z,0.70
2018-12-05T02:51:46.118Z,0.60
2018-12-05T02:54:14.016Z,0.60
2018-12-05T02:56:41.885Z,0.60
2018-12-05T02:59:09.727Z,0.60
2018-12-05T03:01:37.518Z,0.60
2018-12-05T03:04:05.247Z,0.60
2018-12-05T03:06:32.952Z,0.60
2018-12-05T03:09:00.670Z,0.50
2018-12-05T03:11:28.467Z,0.60
2018-12-05T03:13:56.173Z,0.50
2018-12-05T03:16:24.502Z,0.50
2018-12-05T03:18:52.196Z,0.50
2018-12-05T03:21:19.934Z,0.50
2018-12-05T03:23:47.667Z,0.50
2018-12-05T03:26:15.357Z,0.40
2018-12-05T03:28:43.079Z,0.30
2018-12-05T03:31:11.104Z,0.40
2018-12-05T03:33:38.931Z,0.30
2018-12-05T03:36:06.697Z,0.30
2018-12-05T03:38:34.895Z,0.30
2018-12-05T03:41:03.753Z,0.40
2018-12-05T03:43:31.840Z,0.40
2018-12-05T03:45:59.562Z,0.40
2018-12-05T03:48:27.507Z,0.30
2018-12-05T03:50:55.251Z,0.30
2018-12-05T03:53:23.461Z,0.30
2018-12-05T03:55:51.216Z,0.30
2018-12-05T03:58:18.992Z,0.30
2018-12-05T04:00:46.789Z,0.30
2018-12-05T04:03:14.464Z,0.30
2018-12-05T04:05:42.394Z,0.30
2018-12-05T04:08:10.148Z,0.30
2018-12-05T04:10:37.925Z,0.30
2018-12-05T04:13:05.758Z,0.30
2018-12-05T04:15:33.758Z,0.30
2018-12-05T04:18:01.533Z,0.30
2018-12-05T04:20:29.294Z,0.30
2018-12-05T04:22:57.094Z,0.30
2018-12-05T04:25:24.953Z,0.40
2018-12-05T04:27:52.683Z,0.40
2018-12-05T04:30:20.688Z,0.40
2018-12-05T04:32:48.381Z,0.40
2018-12-05T04:35:16.132Z,0.40
2018-12-05T04:37:43.941Z,0.40
2018-12-05T04:40:11.701Z,0.40
2018-12-05T04:42:39.584Z,0.40
2018-12-05T04:45:07.367Z,0.40
2018-12-05T04:47:35.151Z,0.50
2018-12-05T04:50:04.030Z,0.50
2018-12-05T04:52:31.910Z,0.50
2018-12-05T04:54:59.731Z,0.50
2018-12-05T04:57:27.526Z,0.50
2018-12-05T04:59:55.382Z,0.40
2018-12-05T05:02:23.094Z,0.40
2018-12-05T05:04:50.828Z,0.40
2018-12-05T05:07:18.558Z,0.30
2018-12-05T05:09:46.316Z,0.40
2018-12-05T05:12:14.052Z,0.30
2018-12-05T05:14:41.926Z,0.30
2018-12-05T05:17:09.754Z,0.30
2018-12-05T05:19:37.485Z,0.30
2018-12-05T05:22:05.221Z,0.30
2018-12-05T05:24:33.829Z,0.30
2018-12-05T05:27:01.609Z,0.30
2018-12-05T05:29:29.355Z,0.30
2018-12-05T05:31:57.300Z,0.30
2018-12-05T05:34:25.099Z,0.30
2018-12-05T05:36:52.899Z,0.20
2018-12-05T05:39:20.835Z,0.30
2018-12-05T05:41:48.690Z,0.30
2018-12-05T05:44:16.428Z,0.30
2018-12-05T05:46:44.700Z,0.30
2018-12-05T05:49:12.844Z,0.20
2018-12-05T05:51:40.602Z,0.20
2018-12-05T05:54:08.573Z,0.20
2018-12-05T05:56:36.356Z,0.20
2018-12-05T05:59:04.253Z,0.10
2018-12-05T06:01:32.155Z,0.10
2018-12-05T06:03:59.931Z,0.20
2018-12-05T06:06:27.623Z,0.20
2018-12-05T06:08:55.388Z,0.20
2018-12-05T06:11:23.109Z,0.20
2018-12-05T06:13:50.865Z,0.20
2018-12-05T06:16:18.680Z,0.30
2018-12-05T06:18:46.360Z,0.30
2018-12-05T06:21:14.086Z,0.30
2018-12-05T06:23:41.973Z,0.40
2018-12-05T06:26:09.730Z,0.30
2018-12-05T06:28:37.499Z,0.40
2018-12-05T06:31:05.425Z,0.40
2018-12-05T06:33:33.182Z,0.40
2018-12-05T06:36:00.977Z,0.50
2018-12-05T06:38:28.764Z,0.50
2018-12-05T06:40:57.249Z,0.50
2018-12-05T06:43:25.256Z,0.60
2018-12-05T06:45:53.121Z,0.60
2018-12-05T06:48:21.207Z,0.60
2018-12-05T06:50:49.118Z,0.60
2018-12-05T06:53:16.862Z,0.60
2018-12-05T06:55:44.623Z,0.60
2018-12-05T06:58:12.354Z,0.50
2018-12-05T07:00:40.996Z,0.50
2018-12-05T07:03:08.718Z,0.50
2018-12-05T07:05:36.469Z,0.50
2018-12-05T07:08:04.438Z,0.50
2018-12-05T07:10:32.195Z,0.60
2018-12-05T07:12:59.925Z,0.60
2018-12-05T07:15:27.813Z,0.60
2018-12-05T07:17:55.609Z,0.70
2018-12-05T07:20:23.536Z,0.70
2018-12-05T07:22:51.261Z,0.70
2018-12-05T07:25:19.279Z,0.60
2018-12-05T07:27:47.027Z,0.70
2018-12-05T07:30:15.004Z,0.70
2018-12-05T07:32:42.999Z,0.70
2018-12-05T07:35:10.692Z,0.90
2018-12-05T07:37:38.444Z,0.90
2018-12-05T07:40:06.200Z,0.90
2018-12-05T07:42:33.900Z,0.90
2018-12-05T07:45:01.618Z,0.90
2018-12-05T07:47:29.334Z,0.90
2018-12-05T07:49:57.090Z,0.90
2018-12-05T07:52:24.800Z,0.90
2018-12-05T07:54:52.509Z,0.90
2018-12-05T07:57:20.370Z,0.90
2018-12-05T07:59:48.096Z,0.90
2018-12-05T08:02:15.881Z,1.00
2018-12-05T08:04:43.574Z,1.00
2018-12-05T08:07:11.281Z,1.00
2018-12-05T08:09:38.991Z,1.10
2018-12-05T08:12:06.754Z,1.10
2018-12-05T08:14:34.507Z,1.10
2018-12-05T08:17:02.257Z,1.30
2018-12-05T08:19:29.967Z,1.50
2018-12-05T08:21:57.712Z,1.60
2018-12-05T08:24:25.386Z,1.70
2018-12-05T08:26:53.094Z,1.60
2018-12-05T08:29:20.870Z,1.60
2018-12-05T08:31:49.057Z,1.60
2018-12-05T08:34:17.353Z,1.70
2018-12-05T08:36:45.197Z,1.70
2018-12-05T08:39:13.018Z,1.80
2018-12-05T08:41:40.795Z,1.80
2018-12-05T08:44:08.502Z,1.90
2018-12-05T08:46:36.236Z,1.90
2018-12-05T08:49:04.235Z,2.00
2018-12-05T08:51:32.024Z,2.00
2018-12-05T08:53:59.717Z,2.00
2018-12-05T08:56:27.716Z,2.10
2018-12-05T08:58:55.569Z,2.10
2018-12-05T09:01:23.339Z,2.10
2018-12-05T09:03:51.139Z,2.20
2018-12-05T09:06:18.867Z,2.20
2018-12-05T09:08:46.541Z,2.30
2018-12-05T09:11:14.394Z,2.30
2018-12-05T09:13:42.273Z,2.40
2018-12-05T09:16:10.046Z,2.40
2018-12-05T09:18:38.609Z,2.40
2018-12-05T09:21:06.464Z,2.50
2018-12-05T09:23:34.308Z,2.50
2018-12-05T09:26:02.084Z,2.60
2018-12-05T09:28:29.806Z,2.60
2018-12-05T09:30:57.816Z,2.70
2018-12-05T09:33:25.609Z,2.80
2018-12-05T09:35:53.323Z,2.80
2018-12-05T09:38:21.040Z,2.80
2018-12-05T09:40:48.741Z,2.90
2018-12-05T09:43:16.606Z,2.90
2018-12-05T09:45:45.270Z,3.00
2018-12-05T09:48:13.334Z,3.00
2018-12-05T09:50:41.284Z,3.10
2018-12-05T09:53:09.904Z,3.10
2018-12-05T09:55:37.785Z,3.10
2018-12-05T09:58:05.566Z,3.20
2018-12-05T10:00:34.241Z,3.20
2018-12-05T10:03:02.088Z,3.30
2018-12-05T10:05:29.807Z,3.40
2018-12-05T10:07:57.644Z,3.40
2018-12-05T10:10:25.372Z,3.50
2018-12-05T10:12:53.068Z,3.70
2018-12-05T10:15:24.617Z,3.70
2018-12-05T10:17:52.441Z,3.80
2018-12-05T10:20:20.169Z,3.90
2018-12-05T10:22:48.062Z,4.00
2018-12-05T10:25:15.914Z,4.10
2018-12-05T10:27:44.626Z,4.30
2018-12-05T10:30:18.478Z,4.50
2018-12-05T10:32:46.874Z,4.70
2018-12-05T10:35:16.316Z,4.80
2018-12-05T10:37:44.323Z,5.00
2018-12-05T10:40:13.507Z,5.00
2018-12-05T10:42:41.412Z,5.10
2018-12-05T10:45:09.806Z,5.10
2018-12-05T10:47:37.487Z,5.10
2018-12-05T10:50:07.082Z,5.10
2018-12-05T10:52:34.788Z,5.20
2018-12-05T10:55:02.707Z,5.10
2018-12-05T10:57:30.450Z,5.20
2018-12-05T10:59:58.337Z,5.20
2018-12-05T11:02:27.998Z,5.30
2018-12-05T11:04:58.048Z,5.40
2018-12-05T11:07:27.605Z,5.50
2018-12-05T11:09:57.375Z,5.60
2018-12-05T11:12:27.026Z,5.70
2018-12-05T11:14:56.691Z,5.60
2018-12-05T11:17:26.444Z,5.60
2018-12-05T11:19:56.613Z,5.60
2018-12-05T11:22:26.287Z,5.60
2018-12-05T11:24:59.186Z,5.70
2018-12-05T11:27:27.694Z,5.80
2018-12-05T11:29:58.525Z,5.80
2018-12-05T11:32:27.562Z,5.80
2018-12-05T11:34:56.844Z,5.90
2018-12-05T11:37:29.543Z,5.90
2018-12-05T11:39:59.694Z,6.00
2018-12-05T11:42:36.513Z,6.00
2018-12-05T11:45:07.612Z,6.10
2018-12-05T11:47:45.102Z,6.10
2018-12-05T11:50:13.807Z,6.10
2018-12-05T11:55:16.324Z,6.30
2018-12-05T11:57:44.262Z,6.30
2018-12-05T12:00:13.212Z,6.30
2018-12-05T12:02:41.252Z,6.30
2018-12-05T12:05:09.232Z,6.40
2018-12-05T12:07:37.365Z,6.40
2018-12-05T12:10:06.686Z,6.40
2018-12-05T12:12:37.933Z,6.50
2018-12-05T12:15:07.003Z,6.40
2018-12-05T12:17:34.837Z,6.50
2018-12-05T12:20:05.352Z,6.50
2018-12-05T12:22:33.147Z,6.50
2018-12-05T12:25:01.089Z,6.50
2018-12-05T12:27:29.109Z,6.50
2018-12-05T12:29:57.205Z,6.60
2018-12-05T12:32:25.586Z,6.60
2018-12-05T12:34:53.692Z,6.60
2018-12-05T12:37:21.552Z,6.60
2018-12-05T12:39:51.334Z,6.70
2018-12-05T12:42:19.577Z,6.70
2018-12-05T12:44:47.553Z,6.70
2018-12-05T12:47:16.108Z,6.70
2018-12-05T12:49:44.181Z,6.80
2018-12-05T12:52:11.978Z,6.80
2018-12-05T12:54:39.969Z,6.80
2018-12-05T12:57:08.013Z,6.90
2018-12-05T12:59:35.960Z,6.90
2018-12-05T13:02:03.747Z,7.00
2018-12-05T13:04:32.199Z,7.00
2018-12-05T13:07:00.227Z,7.00
2018-12-05T13:09:28.168Z,7.10
2018-12-05T13:11:56.791Z,7.10
2018-12-05T13:14:25.082Z,7.10
2018-12-05T13:16:53.337Z,7.10
2018-12-05T13:19:21.300Z,7.10
2018-12-05T13:21:50.632Z,7.10
2018-12-05T13:24:18.723Z,7.10
2018-12-05T13:26:46.691Z,7.10
2018-12-05T13:29:15.456Z,7.10
2018-12-05T13:31:44.217Z,7.10
2018-12-05T13:34:12.957Z,7.10
2018-12-05T13:36:41.429Z,7.10
2018-12-05T13:39:09.714Z,7.10
2018-12-05T13:41:37.753Z,7.10
2018-12-05T13:44:05.643Z,7.10
2018-12-05T13:46:33.409Z,7.10
2018-12-05T13:49:01.926Z,7.10
2018-12-05T13:51:30.183Z,7.10
2018-12-05T13:53:58.701Z,7.10
2018-12-05T13:56:26.854Z,7.10
2018-12-05T13:58:54.610Z,7.10
2018-12-05T14:01:22.377Z,7.10
2018-12-05T14:03:50.245Z,7.00
2018-12-05T14:06:18.074Z,7.00
2018-12-05T14:08:48.226Z,7.00
2018-12-05T14:11:16.097Z,7.00
2018-12-05T14:13:43.833Z,7.00
2018-12-05T14:16:12.759Z,7.00
2018-12-05T14:18:40.470Z,6.90
2018-12-05T14:21:10.542Z,6.90
2018-12-05T14:23:38.286Z,6.90
2018-12-05T14:26:06.059Z,6.90
2018-12-05T14:28:33.807Z,6.90
2018-12-05T14:31:01.597Z,6.90
2018-12-05T14:33:29.408Z,6.90
2018-12-05T14:35:57.319Z,6.90
2018-12-05T14:38:25.029Z,6.90
2018-12-05T14:40:52.799Z,6.90
2018-12-05T14:43:20.763Z,6.90
2018-12-05T14:45:48.827Z,6.90
2018-12-05T14:48:17.389Z,6.80
2018-12-05T14:50:45.761Z,6.90
2018-12-05T14:53:13.710Z,6.80
2018-12-05T14:55:41.607Z,6.80
2018-12-05T14:58:09.299Z,6.70
2018-12-05T15:00:38.303Z,6.70
2018-12-05T15:03:06.029Z,6.70
2018-12-05T15:05:33.795Z,6.70
2018-12-05T15:08:01.551Z,6.70
2018-12-05T15:10:29.584Z,6.70
2018-12-05T15:12:57.396Z,6.70
2018-12-05T15:15:25.092Z,6.70
2018-12-05T15:17:52.715Z,6.70
2018-12-05T15:20:20.729Z,6.80
2018-12-05T15:22:48.388Z,6.80
2018-12-05T15:25:16.911Z,6.90
2018-12-05T15:27:44.676Z,6.90
2018-12-05T15:30:13.035Z,6.90
2018-12-05T15:32:41.076Z,6.90
2018-12-05T15:35:10.321Z,6.90
2018-12-05T15:37:38.137Z,6.90
2018-12-05T15:40:07.553Z,6.90
2018-12-05T15:42:36.343Z,6.90
2018-12-05T15:45:06.032Z,6.90
2018-12-05T15:47:34.120Z,6.90
2018-12-05T15:50:01.837Z,6.90
2018-12-05T15:52:29.526Z,6.90
2018-12-05T15:54:57.214Z,6.90
2018-12-05T15:57:25.061Z,6.90
2018-12-05T15:59:52.802Z,6.90
2018-12-05T16:02:20.539Z,6.90
2018-12-05T16:04:48.267Z,6.90
2018-12-05T16:07:17.095Z,6.90
2018-12-05T16:09:44.831Z,6.90
2018-12-05T16:12:13.713Z,6.90
2018-12-05T16:14:41.453Z,6.90
2018-12-05T16:17:09.924Z,6.90
2018-12-05T16:19:37.595Z,6.90
2018-12-05T16:22:05.544Z,6.90
2018-12-05T16:24:33.299Z,6.90
2018-12-05T16:27:01.085Z,6.90
2018-12-05T16:29:28.881Z,6.90
2018-12-05T16:31:56.716Z,6.90
2018-12-05T16:34:24.486Z,6.90
2018-12-05T16:36:52.241Z,6.90
2018-12-05T16:39:20.020Z,6.90
2018-12-05T16:41:47.839Z,6.90
2018-12-05T16:44:15.620Z,6.90
2018-12-05T16:46:44.490Z,6.90
2018-12-05T16:49:12.551Z,6.90
2018-12-05T16:51:40.738Z,6.90
2018-12-05T16:54:08.366Z,6.90
2018-12-05T16:56:36.243Z,6.90
2018-12-05T16:59:04.142Z,6.90
2018-12-05T17:01:31.837Z,6.90
2018-12-05T17:03:59.725Z,7.00
2018-12-05T17:06:27.451Z,6.90
2018-12-05T17:08:55.175Z,6.90
2018-12-05T17:11:22.928Z,7.00
2018-12-05T17:13:50.728Z,7.00
2018-12-05T17:16:18.478Z,7.00
2018-12-05T17:18:46.263Z,7.00
2018-12-05T17:21:14.070Z,7.00
2018-12-05T17:23:42.032Z,7.00
2018-12-05T17:26:09.721Z,7.00
2018-12-05T17:28:37.607Z,6.90
2018-12-05T17:31:05.444Z,6.90
2018-12-05T17:33:33.244Z,6.90
2018-12-05T17:36:00.958Z,6.90
2018-12-05T17:38:28.821Z,6.90
2018-12-05T17:40:56.677Z,7.00
2018-12-05T17:43:24.391Z,7.00
2018-12-05T17:45:52.173Z,7.00
2018-12-05T17:48:20.012Z,6.90
2018-12-05T17:50:47.870Z,6.80
2018-12-05T17:53:15.595Z,6.80
2018-12-05T17:55:43.340Z,6.80
2018-12-05T17:58:11.345Z,6.80
2018-12-05T18:00:39.154Z,6.70
2018-12-05T18:03:07.878Z,6.80
2018-12-05T18:05:35.802Z,6.70
2018-12-05T18:08:03.603Z,6.70
2018-12-05T18:10:44.633Z,6.70
2018-12-05T18:13:16.433Z,6.60
2018-12-05T18:15:44.392Z,6.60
2018-12-05T18:18:12.674Z,6.60
2018-12-05T18:20:41.433Z,6.50
2018-12-05T18:23:09.243Z,6.50
2018-12-05T18:25:37.154Z,6.50
2018-12-05T18:28:04.822Z,6.50
2018-12-05T18:30:33.026Z,6.50
2018-12-05T18:33:01.242Z,6.50
2018-12-05T18:35:28.934Z,6.40
2018-12-05T18:37:56.780Z,6.50
2018-12-05T18:40:24.574Z,6.50
2018-12-05T18:42:52.363Z,6.50
2018-12-05T18:45:20.059Z,6.50
2018-12-05T18:47:48.033Z,6.50
2018-12-05T18:50:15.819Z,6.50
2018-12-05T18:52:44.467Z,6.50
2018-12-05T18:55:12.241Z,6.50
2018-12-05T18:57:40.341Z,6.60
2018-12-05T19:00:09.281Z,6.60
2018-12-05T19:02:37.119Z,6.60
2018-12-05T19:05:06.067Z,6.60
2018-12-05T19:07:34.136Z,6.70
2018-12-05T19:10:01.936Z,6.60
2018-12-05T19:12:29.940Z,6.60
2018-12-05T19:14:57.692Z,6.70
2018-12-05T19:17:26.174Z,6.70
2018-12-05T19:19:55.699Z,6.70
2018-12-05T19:22:24.141Z,6.70
2018-12-05T19:24:52.168Z,6.70
2018-12-05T19:27:19.999Z,6.80
2018-12-05T19:29:48.106Z,6.80
2018-12-05T19:32:16.127Z,6.90
2018-12-05T19:34:43.947Z,7.00
2018-12-05T19:37:12.088Z,7.00
2018-12-05T19:39:41.196Z,7.00
2018-12-05T19:42:09.034Z,7.00
2018-12-05T19:44:37.470Z,7.00
2018-12-05T19:47:06.658Z,7.00
2018-12-05T19:49:35.468Z,7.10
2018-12-05T19:52:04.862Z,7.10
2018-12-05T19:54:34.293Z,7.10
2018-12-05T19:57:03.820Z,7.10
2018-12-05T19:59:32.077Z,7.10
2018-12-05T20:02:01.458Z,7.20
2018-12-05T20:04:29.926Z,7.20
2018-12-05T20:06:58.273Z,7.20
2018-12-05T20:09:27.600Z,7.30
2018-12-05T20:11:56.110Z,7.30
2018-12-05T20:14:26.725Z,7.30
2018-12-05T20:16:55.409Z,7.40
2018-12-05T20:19:23.919Z,7.40
2018-12-05T20:21:52.490Z,7.40
2018-12-05T20:24:20.727Z,7.30
2018-12-05T20:26:48.631Z,7.30
2018-12-05T20:29:16.596Z,7.40
2018-12-05T20:31:44.473Z,7.40
2018-12-05T20:34:12.578Z,7.40
2018-12-05T20:36:41.282Z,7.50
2018-12-05T20:39:09.899Z,7.40
2018-12-05T20:41:37.676Z,7.40
2018-12-05T20:44:05.912Z,7.50
2018-12-05T20:49:32.065Z,7.50
2018-12-05T20:52:00.680Z,7.50
2018-12-05T20:54:28.519Z,7.50
2018-12-05T20:56:56.517Z,7.50
2018-12-05T20:59:24.338Z,7.60
2018-12-05T21:01:52.209Z,7.60
2018-12-05T21:04:20.054Z,7.60
2018-12-05T21:06:47.717Z,7.60
2018-12-05T21:09:15.699Z,7.60
2018-12-05T21:11:43.400Z,7.60
2018-12-05T21:14:11.157Z,7.60
2018-12-05T21:16:38.938Z,7.60
2018-12-05T21:19:07.063Z,7.60
2018-12-05T21:21:35.109Z,7.70
2018-12-05T21:24:03.632Z,7.70
2018-12-05T21:26:32.114Z,7.70
2018-12-05T21:29:00.434Z,7.70
2018-12-05T21:31:29.601Z,7.70
2018-12-05T21:33:57.410Z,7.80
2018-12-05T21:36:25.240Z,7.80
2018-12-05T21:38:52.969Z,7.80
2018-12-05T21:44:23.660Z,7.90
2018-12-05T21:46:51.706Z,7.90
2018-12-05T21:49:19.564Z,7.90
2018-12-05T21:51:47.373Z,7.90
2018-12-05T21:54:24.706Z,7.90
2018-12-05T21:56:52.477Z,7.90
2018-12-05T21:59:20.413Z,7.90
2018-12-05T22:01:48.181Z,7.90
2018-12-05T22:04:15.910Z,7.90
2018-12-05T22:06:43.856Z,7.90
2018-12-05T22:09:11.685Z,8.00
2018-12-05T22:11:39.718Z,8.00
2018-12-05T22:14:08.322Z,8.00
2018-12-05T22:16:36.773Z,8.00
2018-12-05T22:22:09.077Z,8.10
2018-12-05T22:24:37.123Z,8.00
2018-12-05T22:27:05.393Z,8.10
2018-12-05T22:29:33.087Z,8.00
2018-12-05T22:32:01.471Z,8.00
2018-12-05T22:34:29.346Z,8.00
2018-12-05T22:36:57.238Z,8.00
2018-12-05T22:39:24.903Z,8.00
2018-12-05T22:41:52.777Z,8.00
2018-12-05T22:44:20.786Z,8.00
2018-12-05T22:46:48.653Z,8.00
2018-12-05T22:49:16.428Z,8.00
2018-12-05T22:51:44.256Z,8.10
2018-12-05T22:54:13.131Z,8.10
2018-12-05T22:56:40.916Z,8.20
2018-12-05T22:59:08.848Z,8.20
2018-12-05T23:01:37.325Z,8.20
2018-12-05T23:04:05.496Z,8.20
2018-12-05T23:06:33.200Z,8.30
2018-12-05T23:09:00.864Z,8.30
2018-12-05T23:11:28.892Z,8.30
2018-12-05T23:13:56.636Z,8.30
2018-12-05T23:16:24.445Z,8.30
2018-12-05T23:18:52.726Z,8.40
2018-12-05T23:21:20.439Z,8.40
2018-12-05T23:23:48.458Z,8.40
2018-12-05T23:26:17.093Z,8.50
2018-12-05T23:28:44.861Z,8.50
2018-12-05T23:31:12.881Z,8.50
2018-12-05T23:33:40.684Z,8.50
2018-12-05T23:36:08.356Z,8.50
2018-12-05T23:38:36.122Z,8.50
2018-12-05T23:41:03.650Z,8.50
2018-12-05T23:43:31.676Z,8.50
2018-12-05T23:46:00.248Z,8.50
2018-12-05T23:48:28.785Z,8.50
2018-12-05T23:50:58.593Z,8.60
2018-12-05T23:53:26.704Z,8.50
2018-12-05T23:55:55.511Z,8.50
2018-12-05T23:58:23.277Z,8.50
